createdAt,value
2017-11-19T00:01:06.081Z,81.70
2017-11-19T00:03:33.660Z,81.70
2017-11-19T00:06:01.106Z,81.20
2017-11-19T00:08:28.593Z,81.10
2017-11-19T00:10:56.070Z,81.50
2017-11-19T00:13:24.351Z,82.70
2017-11-19T00:15:52.571Z,82.20
2017-11-19T00:18:20.038Z,82.10
2017-11-19T00:20:47.547Z,81.30
2017-11-19T00:23:15.826Z,82.10
2017-11-19T00:25:43.281Z,81.20
2017-11-19T00:28:10.797Z,81.00
2017-11-19T00:30:38.254Z,80.20
2017-11-19T00:33:05.792Z,81.20
2017-11-19T00:35:34.035Z,82.70
2017-11-19T00:38:01.513Z,82.60
2017-11-19T00:40:28.982Z,82.70
2017-11-19T00:42:57.205Z,82.70
2017-11-19T00:45:24.669Z,82.70
2017-11-19T00:47:52.151Z,82.70
2017-11-19T00:50:19.625Z,82.70
2017-11-19T00:52:47.113Z,83.10
2017-11-19T00:55:14.598Z,82.70
2017-11-19T00:57:42.856Z,81.20
2017-11-19T01:00:10.289Z,81.10
2017-11-19T01:02:37.815Z,81.20
2017-11-19T01:05:05.311Z,80.70
2017-11-19T01:07:32.797Z,81.50
2017-11-19T01:10:00.298Z,82.20
2017-11-19T01:12:27.754Z,81.80
2017-11-19T01:14:55.967Z,81.60
2017-11-19T01:17:23.498Z,81.50
2017-11-19T01:19:50.967Z,82.50
2017-11-19T01:22:19.234Z,82.50
2017-11-19T01:24:47.507Z,82.50
2017-11-19T01:27:14.973Z,82.40
2017-11-19T01:29:43.215Z,82.50
2017-11-19T01:32:10.677Z,82.40
2017-11-19T01:34:38.131Z,82.30
2017-11-19T01:37:05.618Z,82.60
2017-11-19T01:39:37.186Z,81.60
2017-11-19T01:42:04.652Z,82.00
2017-11-19T01:44:32.140Z,82.50
2017-11-19T01:46:59.627Z,82.60
2017-11-19T01:49:27.080Z,81.10
2017-11-19T01:51:55.323Z,81.10
2017-11-19T01:54:22.804Z,81.00
2017-11-19T01:56:50.294Z,80.20
2017-11-19T01:59:18.558Z,81.30
2017-11-19T02:01:46.782Z,81.50
2017-11-19T02:04:14.225Z,81.40
2017-11-19T02:06:41.696Z,81.20
2017-11-19T02:09:09.343Z,81.60
2017-11-19T02:11:36.803Z,81.60
2017-11-19T02:14:04.299Z,80.20
2017-11-19T02:16:31.774Z,80.30
2017-11-19T02:18:59.252Z,80.10
2017-11-19T02:21:26.716Z,79.60
2017-11-19T02:23:54.188Z,78.10
2017-11-19T02:26:21.782Z,78.80
2017-11-19T02:28:50.058Z,78.70
2017-11-19T02:31:18.272Z,78.50
2017-11-19T02:33:45.725Z,78.50
2017-11-19T02:36:13.939Z,78.50
2017-11-19T02:38:41.447Z,78.40
2017-11-19T02:41:09.671Z,77.50
2017-11-19T02:43:37.152Z,77.50
2017-11-19T02:46:04.661Z,78.00
2017-11-19T02:48:32.099Z,77.50
2017-11-19T02:51:00.339Z,78.50
2017-11-19T02:53:27.814Z,78.40
2017-11-19T02:55:55.309Z,78.60
2017-11-19T02:58:23.547Z,78.40
2017-11-19T03:00:51.001Z,78.40
2017-11-19T03:03:18.497Z,78.20
2017-11-19T03:05:45.954Z,78.90
2017-11-19T03:08:15.236Z,78.50
2017-11-19T03:10:42.741Z,79.20
2017-11-19T03:13:10.218Z,77.60
2017-11-19T03:15:38.430Z,79.10
2017-11-19T03:18:05.900Z,79.80
2017-11-19T03:20:33.386Z,79.30
2017-11-19T03:23:00.865Z,78.60
2017-11-19T03:25:29.105Z,78.90
2017-11-19T03:27:56.625Z,78.80
2017-11-19T03:30:24.839Z,78.60
2017-11-19T03:32:52.332Z,78.60
2017-11-19T03:35:19.831Z,78.50
2017-11-19T03:37:47.268Z,78.80
2017-11-19T03:40:14.750Z,79.00
2017-11-19T03:42:42.978Z,78.50
2017-11-19T03:45:10.455Z,78.40
2017-11-19T03:47:37.957Z,78.10
2017-11-19T03:50:06.186Z,77.70
2017-11-19T03:52:33.753Z,77.70
2017-11-19T03:55:01.221Z,77.40
2017-11-19T03:57:28.674Z,78.10
2017-11-19T03:59:56.127Z,77.90
2017-11-19T04:02:23.762Z,77.70
2017-11-19T04:04:51.960Z,77.10
2017-11-19T04:07:19.442Z,77.00
2017-11-19T04:09:46.923Z,77.00
2017-11-19T04:12:14.383Z,77.80
2017-11-19T04:14:41.860Z,77.70
2017-11-19T04:17:09.307Z,77.10
2017-11-19T04:19:36.797Z,76.50
2017-11-19T04:22:05.036Z,77.70
2017-11-19T04:24:32.537Z,77.70
2017-11-19T04:27:00.005Z,77.30
2017-11-19T04:29:28.259Z,77.90
2017-11-19T04:31:55.866Z,77.80
2017-11-19T04:34:23.274Z,78.10
2017-11-19T04:36:50.769Z,77.90
2017-11-19T04:39:18.992Z,77.10
2017-11-19T04:41:46.438Z,77.00
2017-11-19T04:44:13.912Z,78.10
2017-11-19T04:46:41.372Z,77.90
2017-11-19T04:49:08.844Z,77.90
2017-11-19T04:51:36.334Z,77.50
2017-11-19T04:54:03.836Z,77.10
2017-11-19T04:56:32.065Z,77.10
2017-11-19T04:58:59.522Z,77.10
2017-11-19T05:01:27.098Z,77.10
2017-11-19T05:03:54.563Z,76.50
2017-11-19T05:06:22.055Z,76.00
2017-11-19T05:08:50.295Z,76.60
2017-11-19T05:11:18.555Z,77.10
2017-11-19T05:13:46.039Z,77.80
2017-11-19T05:16:13.876Z,77.10
2017-11-19T05:18:41.347Z,77.10
2017-11-19T05:21:08.807Z,77.90
2017-11-19T05:23:36.248Z,76.90
2017-11-19T05:26:04.513Z,77.50
2017-11-19T05:28:31.952Z,77.50
2017-11-19T05:30:59.426Z,77.10
2017-11-19T05:33:26.907Z,76.80
2017-11-19T05:35:55.149Z,76.50
2017-11-19T05:38:22.609Z,77.20
2017-11-19T05:40:50.074Z,76.40
2017-11-19T05:43:17.559Z,76.10
2017-11-19T05:45:45.011Z,76.10
2017-11-19T05:48:12.472Z,76.50
2017-11-19T05:50:39.971Z,76.70
2017-11-19T05:53:08.198Z,76.10
2017-11-19T05:55:35.818Z,76.00
2017-11-19T05:58:04.095Z,76.40
2017-11-19T06:00:32.309Z,76.30
2017-11-19T06:03:00.573Z,76.20
2017-11-19T06:05:28.026Z,76.90
2017-11-19T06:07:55.663Z,76.00
2017-11-19T06:10:23.261Z,76.00
2017-11-19T06:12:50.705Z,76.60
2017-11-19T06:15:18.972Z,75.80
2017-11-19T06:17:46.408Z,75.70
2017-11-19T06:20:13.886Z,75.70
2017-11-19T06:22:41.411Z,75.60
2017-11-19T06:25:09.599Z,75.50
2017-11-19T06:27:37.775Z,76.40
2017-11-19T06:30:05.523Z,76.40
2017-11-19T06:32:32.979Z,75.90
2017-11-19T06:35:00.487Z,76.30
2017-11-19T06:37:27.961Z,76.40
2017-11-19T06:39:55.560Z,75.50
2017-11-19T06:42:23.037Z,76.00
2017-11-19T06:44:50.485Z,77.00
2017-11-19T06:47:17.970Z,76.60
2017-11-19T06:49:45.429Z,76.80
2017-11-19T06:52:12.922Z,76.30
2017-11-19T06:54:40.377Z,77.00
2017-11-19T06:57:07.820Z,77.00
2017-11-19T06:59:35.341Z,76.90
2017-11-19T07:02:02.766Z,77.00
2017-11-19T07:04:30.250Z,77.60
2017-11-19T07:06:57.745Z,76.30
2017-11-19T07:09:25.975Z,77.30
2017-11-19T07:11:53.430Z,77.30
2017-11-19T07:14:20.999Z,77.20
2017-11-19T07:16:48.429Z,77.00
2017-11-19T07:19:15.947Z,77.10
2017-11-19T07:21:43.422Z,77.10
2017-11-19T07:24:10.873Z,77.00
2017-11-19T07:26:38.345Z,77.00
2017-11-19T07:29:05.825Z,77.50
2017-11-19T07:31:34.068Z,77.00
2017-11-19T07:34:01.581Z,76.90
2017-11-19T07:36:29.038Z,76.70
2017-11-19T07:38:57.310Z,77.00
2017-11-19T07:41:25.561Z,77.00
2017-11-19T07:43:52.982Z,77.00
2017-11-19T07:46:20.502Z,76.80
2017-11-19T07:48:48.726Z,76.50
2017-11-19T07:51:16.239Z,76.50
2017-11-19T07:53:43.744Z,76.30
2017-11-19T07:56:11.264Z,76.40
2017-11-19T07:58:38.761Z,76.00
2017-11-19T08:01:06.223Z,76.10
2017-11-19T08:03:34.460Z,76.10
2017-11-19T08:06:01.952Z,76.10
2017-11-19T08:08:30.163Z,76.10
2017-11-19T08:10:57.664Z,76.00
2017-11-19T08:13:25.126Z,76.00
2017-11-19T08:15:52.603Z,76.20
2017-11-19T08:18:20.096Z,76.00
2017-11-19T08:20:47.569Z,75.80
2017-11-19T08:23:15.769Z,76.00
2017-11-19T08:25:43.222Z,76.00
2017-11-19T08:28:10.751Z,76.00
2017-11-19T08:30:38.965Z,76.40
2017-11-19T08:33:07.158Z,76.00
2017-11-19T08:35:34.640Z,76.00
2017-11-19T08:38:02.138Z,75.90
2017-11-19T08:40:30.386Z,76.20
2017-11-19T08:42:57.844Z,76.10
2017-11-19T08:45:25.355Z,76.00
2017-11-19T08:47:53.565Z,76.30
2017-11-19T08:50:21.058Z,76.30
2017-11-19T08:52:48.537Z,76.20
2017-11-19T08:55:15.985Z,74.50
2017-11-19T08:57:43.491Z,75.00
2017-11-19T09:00:10.953Z,75.20
2017-11-19T09:02:38.414Z,75.10
2017-11-19T09:05:05.937Z,74.90
2017-11-19T09:07:33.473Z,74.90
2017-11-19T09:10:00.873Z,74.90
2017-11-19T09:12:29.161Z,74.60
2017-11-19T09:14:57.394Z,74.50
2017-11-19T09:17:24.895Z,74.50
2017-11-19T09:19:52.379Z,73.90
2017-11-19T09:22:19.871Z,73.40
2017-11-19T09:24:47.320Z,72.90
2017-11-19T09:27:14.768Z,73.30
2017-11-19T09:29:42.285Z,72.80
2017-11-19T09:32:09.727Z,72.70
2017-11-19T09:34:37.230Z,72.50
2017-11-19T09:37:05.452Z,74.00
2017-11-19T09:39:32.921Z,73.30
2017-11-19T09:42:00.386Z,72.80
2017-11-19T09:44:27.840Z,73.30
2017-11-19T09:46:55.345Z,72.30
2017-11-19T09:49:22.812Z,72.30
2017-11-19T09:51:51.067Z,72.30
2017-11-19T09:54:18.535Z,72.30
2017-11-19T09:56:46.028Z,72.90
2017-11-19T09:59:14.322Z,72.10
2017-11-19T10:01:42.548Z,71.90
2017-11-19T10:04:10.042Z,71.90
2017-11-19T10:06:37.528Z,72.20
2017-11-19T10:09:05.737Z,71.80
2017-11-19T10:11:33.475Z,71.80
2017-11-19T10:14:00.979Z,71.30
2017-11-19T10:16:28.442Z,71.10
2017-11-19T10:18:55.934Z,70.50
2017-11-19T10:21:23.397Z,70.20
2017-11-19T10:23:50.917Z,69.60
2017-11-19T10:26:19.185Z,69.40
2017-11-19T10:28:46.769Z,69.40
2017-11-19T10:31:15.099Z,69.90
2017-11-19T10:33:43.269Z,70.10
2017-11-19T10:36:10.721Z,70.10
2017-11-19T10:38:38.199Z,70.10
2017-11-19T10:41:05.689Z,69.90
2017-11-19T10:43:33.907Z,69.70
2017-11-19T10:46:01.402Z,69.70
2017-11-19T10:48:29.653Z,70.00
2017-11-19T10:50:57.220Z,69.70
2017-11-19T10:53:24.703Z,70.10
2017-11-19T10:55:52.205Z,69.80
2017-11-19T10:58:20.413Z,70.10
2017-11-19T11:00:47.897Z,70.10
2017-11-19T11:03:15.461Z,69.90
2017-11-19T11:05:42.955Z,69.50
2017-11-19T11:08:10.428Z,69.60
2017-11-19T11:10:38.665Z,70.00
2017-11-19T11:13:06.185Z,70.00
2017-11-19T11:15:33.672Z,70.20
2017-11-19T11:18:01.124Z,70.10
2017-11-19T11:20:28.602Z,70.50
2017-11-19T11:22:56.087Z,69.40
2017-11-19T11:25:23.528Z,69.40
2017-11-19T11:27:51.087Z,69.40
2017-11-19T11:30:18.530Z,70.00
2017-11-19T11:32:46.051Z,69.30
2017-11-19T11:35:13.518Z,69.20
2017-11-19T11:37:40.959Z,69.00
2017-11-19T11:40:08.428Z,68.40
2017-11-19T11:42:35.883Z,68.80
2017-11-19T11:45:03.365Z,69.10
2017-11-19T11:47:30.858Z,68.80
2017-11-19T11:49:58.363Z,68.90
2017-11-19T11:52:25.812Z,68.30
2017-11-19T11:54:53.257Z,68.10
2017-11-19T11:57:20.868Z,68.10
2017-11-19T11:59:48.316Z,68.10
2017-11-19T12:02:15.783Z,68.10
2017-11-19T12:04:43.264Z,68.10
2017-11-19T12:07:10.707Z,68.20
2017-11-19T12:09:38.198Z,68.10
2017-11-19T12:12:05.796Z,68.10
2017-11-19T12:14:34.089Z,67.70
2017-11-19T12:17:01.538Z,67.70
2017-11-19T12:19:29.028Z,67.80
2017-11-19T12:21:56.514Z,67.90
2017-11-19T12:24:24.031Z,68.20
2017-11-19T12:26:51.522Z,68.30
2017-11-19T12:29:19.002Z,68.20
2017-11-19T12:31:46.500Z,68.00
2017-11-19T12:34:15.416Z,69.10
2017-11-19T12:36:42.946Z,69.10
2017-11-19T12:39:10.437Z,69.90
2017-11-19T12:41:38.731Z,70.40
2017-11-19T12:44:06.177Z,72.10
2017-11-19T12:46:33.656Z,73.30
2017-11-19T12:49:01.088Z,74.70
2017-11-19T12:51:29.349Z,76.60
2017-11-19T12:53:56.816Z,76.70
2017-11-19T12:56:25.073Z,78.10
2017-11-19T12:58:52.555Z,77.70
2017-11-19T13:01:20.035Z,77.40
2017-11-19T13:03:48.281Z,79.80
2017-11-19T13:06:15.745Z,79.80
2017-11-19T13:08:43.256Z,76.50
2017-11-19T13:11:10.749Z,74.90
2017-11-19T13:13:38.235Z,75.60
2017-11-19T13:16:05.741Z,77.50
2017-11-19T13:18:33.212Z,77.80
2017-11-19T13:21:00.710Z,79.10
2017-11-19T13:23:28.197Z,79.10
2017-11-19T13:25:55.655Z,79.00
2017-11-19T13:28:23.088Z,79.70
2017-11-19T13:30:50.605Z,80.20
2017-11-19T13:33:18.017Z,79.00
2017-11-19T13:35:45.468Z,78.50
2017-11-19T13:38:13.464Z,79.20
2017-11-19T13:40:40.927Z,74.00
2017-11-19T13:43:08.436Z,71.50
2017-11-19T13:45:35.912Z,72.00
2017-11-19T13:48:03.344Z,71.80
2017-11-19T13:50:31.603Z,75.90
2017-11-19T13:52:59.080Z,75.90
2017-11-19T13:55:26.578Z,76.20
2017-11-19T13:57:54.092Z,76.30
2017-11-19T14:00:21.564Z,76.40
2017-11-19T14:02:49.835Z,78.60
2017-11-19T14:05:18.072Z,79.70
2017-11-19T14:07:45.538Z,79.70
2017-11-19T14:10:13.047Z,79.60
2017-11-19T14:12:40.656Z,78.60
2017-11-19T14:15:11.315Z,80.70
2017-11-19T14:17:41.857Z,80.90
2017-11-19T14:20:09.497Z,81.90
2017-11-19T14:22:37.004Z,80.10
2017-11-19T14:25:04.626Z,78.80
2017-11-19T14:27:32.189Z,79.10
2017-11-19T14:30:00.428Z,78.80
2017-11-19T14:32:27.979Z,78.80
2017-11-19T14:34:55.459Z,78.30
2017-11-19T14:37:23.748Z,78.10
2017-11-19T14:39:51.196Z,78.00
2017-11-19T14:42:18.682Z,78.40
2017-11-19T14:44:46.152Z,78.00
2017-11-19T14:47:13.705Z,78.20
2017-11-19T14:49:41.901Z,79.50
2017-11-19T14:52:09.402Z,79.30
2017-11-19T14:54:37.641Z,77.70
2017-11-19T14:57:05.166Z,77.60
2017-11-19T14:59:32.640Z,78.10
2017-11-19T15:02:00.082Z,78.90
2017-11-19T15:04:27.548Z,79.30
2017-11-19T15:06:55.053Z,80.60
2017-11-19T15:09:22.521Z,81.00
2017-11-19T15:11:50.141Z,80.20
2017-11-19T15:14:17.667Z,79.80
2017-11-19T15:16:45.167Z,80.20
2017-11-19T15:19:12.693Z,80.80
2017-11-19T15:21:40.115Z,80.30
2017-11-19T15:24:07.624Z,80.60
2017-11-19T15:26:35.137Z,81.50
2017-11-19T15:29:02.629Z,81.40
2017-11-19T15:31:30.074Z,80.20
2017-11-19T15:33:57.613Z,80.80
2017-11-19T15:36:25.085Z,80.20
2017-11-19T15:38:52.565Z,80.90
2017-11-19T15:41:20.091Z,81.00
2017-11-19T15:43:48.630Z,81.00
2017-11-19T15:46:16.849Z,80.70
2017-11-19T15:48:45.145Z,80.60
2017-11-19T15:51:12.700Z,80.60
2017-11-19T15:53:40.984Z,75.00
2017-11-19T15:56:09.272Z,73.60
2017-11-19T15:58:36.761Z,73.60
2017-11-19T16:01:04.224Z,72.80
2017-11-19T16:03:31.763Z,73.60
2017-11-19T16:05:59.309Z,75.60
2017-11-19T16:08:26.776Z,75.90
2017-11-19T16:10:54.234Z,77.30
2017-11-19T16:13:21.699Z,78.00
2017-11-19T16:15:49.277Z,78.10
2017-11-19T16:18:16.744Z,78.10
2017-11-19T16:20:44.245Z,78.10
2017-11-19T16:23:12.598Z,79.40
2017-11-19T16:25:40.876Z,79.80
2017-11-19T16:28:08.324Z,79.80
2017-11-19T16:30:35.790Z,80.60
2017-11-19T16:33:03.352Z,80.20
2017-11-19T16:35:30.816Z,80.70
2017-11-19T16:37:58.294Z,81.10
2017-11-19T16:40:26.548Z,81.00
2017-11-19T16:42:54.027Z,80.90
2017-11-19T16:45:21.669Z,81.30
2017-11-19T16:47:49.184Z,83.50
2017-11-19T16:50:16.631Z,79.50
2017-11-19T16:52:44.091Z,79.10
2017-11-19T16:55:11.770Z,79.50
2017-11-19T16:57:39.232Z,79.90
2017-11-19T17:00:06.728Z,79.70
2017-11-19T17:02:34.962Z,80.00
2017-11-19T17:05:02.463Z,79.90
2017-11-19T17:07:30.680Z,80.50
2017-11-19T17:09:58.141Z,79.70
2017-11-19T17:12:25.643Z,79.60
2017-11-19T17:14:53.087Z,79.10
2017-11-19T17:17:22.445Z,79.50
2017-11-19T17:19:50.706Z,78.40
2017-11-19T17:22:18.235Z,78.30
2017-11-19T17:24:45.706Z,79.00
2017-11-19T17:27:13.192Z,78.00
2017-11-19T17:29:40.629Z,78.80
2017-11-19T17:32:08.142Z,78.70
2017-11-19T17:34:35.625Z,78.50
2017-11-19T17:37:03.105Z,78.90
2017-11-19T17:39:30.582Z,78.10
2017-11-19T17:41:58.811Z,79.90
2017-11-19T17:44:26.309Z,79.80
2017-11-19T17:46:53.821Z,79.80
2017-11-19T17:49:21.406Z,81.60
2017-11-19T17:51:48.859Z,79.50
2017-11-19T17:54:17.123Z,77.90
2017-11-19T17:56:44.580Z,77.90
2017-11-19T17:59:12.072Z,77.30
2017-11-19T18:01:40.305Z,71.90
2017-11-19T18:04:07.768Z,71.90
2017-11-19T18:06:36.054Z,74.80
2017-11-19T18:09:04.311Z,74.70
2017-11-19T18:11:31.811Z,74.70
2017-11-19T18:13:59.584Z,74.90
2017-11-19T18:16:27.062Z,80.90
2017-11-19T18:18:54.544Z,75.40
2017-11-19T18:21:22.032Z,74.10
2017-11-19T18:23:49.606Z,77.30
2017-11-19T18:26:17.050Z,70.30
2017-11-19T18:28:44.547Z,72.00
2017-11-19T18:31:12.776Z,75.10
2017-11-19T18:33:40.233Z,75.10
2017-11-19T18:36:07.751Z,74.60
2017-11-19T18:38:35.978Z,76.70
2017-11-19T18:41:03.457Z,76.60
2017-11-19T18:43:36.541Z,75.60
2017-11-19T18:46:04.031Z,76.70
2017-11-19T18:48:31.484Z,76.90
2017-11-19T18:50:58.952Z,76.70
2017-11-19T18:53:26.443Z,77.60
2017-11-19T18:55:54.664Z,77.70
2017-11-19T18:58:22.106Z,77.70
2017-11-19T19:00:49.636Z,77.80
2017-11-19T19:03:18.028Z,77.80
2017-11-19T19:05:46.273Z,77.70
2017-11-19T19:08:13.733Z,77.70
2017-11-19T19:10:41.236Z,76.90
2017-11-19T19:13:09.464Z,76.20
2017-11-19T19:15:36.896Z,76.30
2017-11-19T19:18:04.395Z,76.60
2017-11-19T19:20:31.912Z,75.20
2017-11-19T19:22:59.428Z,75.90
2017-11-19T19:25:26.866Z,73.40
2017-11-19T19:27:55.078Z,74.10
2017-11-19T19:30:22.538Z,74.00
2017-11-19T19:32:50.264Z,72.80
2017-11-19T19:35:17.797Z,69.50
2017-11-19T19:37:46.016Z,72.10
2017-11-19T19:40:13.519Z,72.10
2017-11-19T19:42:41.016Z,72.50
2017-11-19T19:45:08.516Z,72.10
2017-11-19T19:47:35.992Z,73.70
2017-11-19T19:50:03.484Z,74.10
2017-11-19T19:52:31.774Z,74.50
2017-11-19T19:54:59.995Z,75.60
2017-11-19T19:57:27.511Z,75.60
2017-11-19T19:59:55.759Z,77.60
2017-11-19T20:02:23.217Z,77.70
2017-11-19T20:04:50.740Z,77.80
2017-11-19T20:07:18.198Z,77.90
2017-11-19T20:09:45.647Z,77.20
2017-11-19T20:12:13.900Z,78.80
2017-11-19T20:14:41.379Z,78.70
2017-11-19T20:17:08.855Z,77.90
2017-11-19T20:19:37.151Z,77.10
2017-11-19T20:22:05.376Z,77.90
2017-11-19T20:24:32.892Z,77.90
2017-11-19T20:27:00.415Z,78.50
2017-11-19T20:29:27.909Z,78.90
2017-11-19T20:31:56.153Z,79.90
2017-11-19T20:34:23.708Z,79.90
2017-11-19T20:36:51.182Z,79.10
2017-11-19T20:39:18.670Z,80.00
2017-11-19T20:41:46.916Z,78.60
2017-11-19T20:44:14.397Z,78.40
2017-11-19T20:46:41.991Z,79.40
2017-11-19T20:49:09.460Z,79.80
2017-11-19T20:51:36.944Z,80.60
2017-11-19T20:54:04.496Z,79.70
2017-11-19T20:56:31.948Z,80.30
2017-11-19T20:58:59.469Z,80.40
2017-11-19T21:01:27.739Z,80.20
2017-11-19T21:03:55.282Z,80.20
2017-11-19T21:06:22.733Z,80.10
2017-11-19T21:08:50.454Z,80.80
2017-11-19T21:11:17.908Z,80.10
2017-11-19T21:13:45.381Z,79.40
2017-11-19T21:16:12.892Z,80.20
2017-11-19T21:18:40.402Z,80.20
2017-11-19T21:21:07.857Z,79.80
2017-11-19T21:23:35.326Z,80.80
2017-11-19T21:26:03.018Z,80.60
2017-11-19T21:28:31.296Z,81.20
2017-11-19T21:30:59.541Z,80.40
2017-11-19T21:33:27.028Z,80.40
2017-11-19T21:35:55.321Z,81.20
2017-11-19T21:38:23.604Z,81.10
2017-11-19T21:40:51.820Z,81.50
2017-11-19T21:43:19.274Z,80.80
2017-11-19T21:45:47.523Z,81.40
2017-11-19T21:48:15.784Z,81.70
2017-11-19T21:50:43.293Z,81.70
2017-11-19T21:53:10.797Z,81.20
2017-11-19T21:55:38.263Z,80.40
2017-11-19T21:58:06.516Z,80.60
2017-11-19T22:00:33.961Z,80.60
2017-11-19T22:03:01.463Z,81.20
2017-11-19T22:05:29.025Z,82.10
2017-11-19T22:07:56.458Z,82.20
2017-11-19T22:10:23.940Z,80.70
2017-11-19T22:12:51.515Z,80.80
2017-11-19T22:15:19.430Z,81.70
2017-11-19T22:17:46.927Z,81.90
2017-11-19T22:20:14.397Z,81.10
2017-11-19T22:22:41.896Z,80.80
2017-11-19T22:25:10.180Z,81.30
2017-11-19T22:27:38.410Z,80.80
2017-11-19T22:30:05.887Z,80.70
2017-11-19T22:32:33.352Z,80.90
2017-11-19T22:35:00.809Z,81.10
2017-11-19T22:37:28.289Z,81.00
2017-11-19T22:39:55.812Z,82.10
2017-11-19T22:42:23.278Z,81.30
2017-11-19T22:44:50.715Z,81.40
2017-11-19T22:47:18.972Z,80.50
2017-11-19T22:49:46.420Z,80.40
2017-11-19T22:52:13.891Z,81.00
2017-11-19T22:54:41.390Z,81.70
2017-11-19T22:57:08.909Z,82.10
2017-11-19T22:59:36.360Z,82.20
2017-11-19T23:02:03.824Z,82.20
2017-11-19T23:04:31.279Z,82.10
2017-11-19T23:06:58.779Z,82.40
2017-11-19T23:09:26.995Z,81.90
2017-11-19T23:11:54.446Z,81.80
2017-11-19T23:14:21.947Z,82.20
2017-11-19T23:16:49.457Z,82.10
2017-11-19T23:19:16.884Z,82.20
2017-11-19T23:21:44.452Z,82.30
2017-11-19T23:24:14.968Z,82.60
2017-11-19T23:26:42.416Z,82.20
2017-11-19T23:29:09.864Z,82.30
2017-11-19T23:31:37.340Z,82.20
2017-11-19T23:34:04.801Z,82.30
2017-11-19T23:36:32.299Z,83.10
2017-11-19T23:38:59.758Z,82.30
2017-11-19T23:41:27.220Z,82.20
2017-11-19T23:43:56.236Z,82.40
2017-11-19T23:46:23.669Z,82.20
2017-11-19T23:48:51.136Z,82.50
2017-11-19T23:51:20.139Z,82.30
2017-11-19T23:53:47.678Z,82.30
2017-11-19T23:56:15.156Z,82.40
2017-11-19T23:58:42.610Z,82.30
